sensor_id;sensor_type;location;lat;lon;timestamp;temperature;humidity
70170;DHT22;57543;45.442;9.212;2023-05-07T00:00:20;23.46;57.41
70170;DHT22;57543;45.442;9.212;2023-05-07T00:03:23;23.45;57.45
70170;DHT22;57543;45.442;9.212;2023-05-07T00:06:28;23.41;57.54
70170;DHT22;57543;45.442;9.212;2023-05-07T00:09:32;23.43;57.68
70170;DHT22;57543;45.442;9.212;2023-05-07T00:12:35;23.45;57.59
70170;DHT22;57543;45.442;9.212;2023-05-07T00:15:39;23.41;58.01
70170;DHT22;57543;45.442;9.212;2023-05-07T00:18:43;23.12;59.21
70170;DHT22;57543;45.442;9.212;2023-05-07T00:21:47;23.15;58.59
70170;DHT22;57543;45.442;9.212;2023-05-07T00:24:51;23.12;59.51
70170;DHT22;57543;45.442;9.212;2023-05-07T00:27:54;23.14;57.65
70170;DHT22;57543;45.442;9.212;2023-05-07T00:30:58;23.00;53.32
70170;DHT22;57543;45.442;9.212;2023-05-07T00:34:02;22.89;52.33
70170;DHT22;57543;45.442;9.212;2023-05-07T00:37:05;22.96;50.16
70170;DHT22;57543;45.442;9.212;2023-05-07T00:40:10;22.80;49.12
70170;DHT22;57543;45.442;9.212;2023-05-07T00:43:14;22.77;48.94
70170;DHT22;57543;45.442;9.212;2023-05-07T00:46:20;22.69;49.39
70170;DHT22;57543;45.442;9.212;2023-05-07T00:49:52;22.69;48.73
70170;DHT22;57543;45.442;9.212;2023-05-07T00:52:56;22.45;48.57
70170;DHT22;57543;45.442;9.212;2023-05-07T00:55:59;22.31;48.86
70170;DHT22;57543;45.442;9.212;2023-05-07T00:59:05;22.34;48.87
70170;DHT22;57543;45.442;9.212;2023-05-07T01:02:10;22.46;48.32
70170;DHT22;57543;45.442;9.212;2023-05-07T01:05:15;22.60;47.51
70170;DHT22;57543;45.442;9.212;2023-05-07T01:08:22;22.66;47.38
70170;DHT22;57543;45.442;9.212;2023-05-07T01:11:26;22.62;47.40
70170;DHT22;57543;45.442;9.212;2023-05-07T01:14:29;22.67;47.19
70170;DHT22;57543;45.442;9.212;2023-05-07T01:17:35;22.76;46.92
70170;DHT22;57543;45.442;9.212;2023-05-07T01:20:40;22.46;47.33
70170;DHT22;57543;45.442;9.212;2023-05-07T01:23:45;22.66;47.27
70170;DHT22;57543;45.442;9.212;2023-05-07T01:26:50;22.77;47.86
70170;DHT22;57543;45.442;9.212;2023-05-07T01:29:55;22.81;48.57
70170;DHT22;57543;45.442;9.212;2023-05-07T01:33:11;22.74;49.18
70170;DHT22;57543;45.442;9.212;2023-05-07T01:36:17;22.63;50.12
70170;DHT22;57543;45.442;9.212;2023-05-07T01:39:26;22.77;50.15
70170;DHT22;57543;45.442;9.212;2023-05-07T01:42:31;22.81;51.67
70170;DHT22;57543;45.442;9.212;2023-05-07T01:45:35;22.96;52.03
70170;DHT22;57543;45.442;9.212;2023-05-07T01:48:39;22.96;54.00
70170;DHT22;57543;45.442;9.212;2023-05-07T01:51:43;23.01;54.48
70170;DHT22;57543;45.442;9.212;2023-05-07T01:54:47;23.06;55.30
70170;DHT22;57543;45.442;9.212;2023-05-07T01:57:51;23.10;55.54
70170;DHT22;57543;45.442;9.212;2023-05-07T02:00:54;23.08;55.91
70170;DHT22;57543;45.442;9.212;2023-05-07T02:03:58;23.00;56.18
70170;DHT22;57543;45.442;9.212;2023-05-07T02:07:04;22.94;56.24
70170;DHT22;57543;45.442;9.212;2023-05-07T02:10:09;22.87;56.03
70170;DHT22;57543;45.442;9.212;2023-05-07T02:13:13;22.89;55.76
70170;DHT22;57543;45.442;9.212;2023-05-07T02:16:17;22.91;55.57
70170;DHT22;57543;45.442;9.212;2023-05-07T02:19:23;22.80;55.88
70170;DHT22;57543;45.442;9.212;2023-05-07T02:22:27;22.84;54.87
70170;DHT22;57543;45.442;9.212;2023-05-07T02:25:30;22.86;54.34
70170;DHT22;57543;45.442;9.212;2023-05-07T02:28:34;22.79;53.46
70170;DHT22;57543;45.442;9.212;2023-05-07T02:31:42;22.79;53.73
70170;DHT22;57543;45.442;9.212;2023-05-07T02:34:46;22.67;54.21
70170;DHT22;57543;45.442;9.212;2023-05-07T02:37:50;22.66;54.10
70170;DHT22;57543;45.442;9.212;2023-05-07T02:40:53;22.44;54.79
70170;DHT22;57543;45.442;9.212;2023-05-07T02:43:57;22.52;54.61
70170;DHT22;57543;45.442;9.212;2023-05-07T02:47:02;22.52;54.68
70170;DHT22;57543;45.442;9.212;2023-05-07T02:50:07;22.49;54.69
70170;DHT22;57543;45.442;9.212;2023-05-07T02:53:10;22.39;54.36
70170;DHT22;57543;45.442;9.212;2023-05-07T02:56:14;22.11;54.15
70170;DHT22;57543;45.442;9.212;2023-05-07T02:59:18;22.25;53.75
70170;DHT22;57543;45.442;9.212;2023-05-07T03:02:21;22.12;53.97
70170;DHT22;57543;45.442;9.212;2023-05-07T03:05:25;22.31;53.86
70170;DHT22;57543;45.442;9.212;2023-05-07T03:08:28;22.34;53.84
70170;DHT22;57543;45.442;9.212;2023-05-07T03:11:32;22.19;53.63
70170;DHT22;57543;45.442;9.212;2023-05-07T03:14:36;22.25;53.45
70170;DHT22;57543;45.442;9.212;2023-05-07T03:17:40;22.22;53.90
70170;DHT22;57543;45.442;9.212;2023-05-07T03:20:44;22.07;54.97
70170;DHT22;57543;45.442;9.212;2023-05-07T03:23:47;21.84;56.13
70170;DHT22;57543;45.442;9.212;2023-05-07T03:26:51;22.02;56.16
70170;DHT22;57543;45.442;9.212;2023-05-07T03:29:55;21.91;57.01
70170;DHT22;57543;45.442;9.212;2023-05-07T03:32:59;21.74;57.67
70170;DHT22;57543;45.442;9.212;2023-05-07T03:36:03;21.82;57.72
70170;DHT22;57543;45.442;9.212;2023-05-07T03:39:08;21.86;57.87
70170;DHT22;57543;45.442;9.212;2023-05-07T03:42:16;21.73;58.34
70170;DHT22;57543;45.442;9.212;2023-05-07T03:45:19;21.73;58.69
70170;DHT22;57543;45.442;9.212;2023-05-07T03:48:30;21.74;58.79
70170;DHT22;57543;45.442;9.212;2023-05-07T03:51:35;21.76;58.95
70170;DHT22;57543;45.442;9.212;2023-05-07T03:54:40;21.83;58.85
70170;DHT22;57543;45.442;9.212;2023-05-07T03:57:44;21.65;59.41
70170;DHT22;57543;45.442;9.212;2023-05-07T04:00:47;21.73;59.32
70170;DHT22;57543;45.442;9.212;2023-05-07T04:03:59;21.83;59.08
70170;DHT22;57543;45.442;9.212;2023-05-07T04:07:03;21.86;58.75
70170;DHT22;57543;45.442;9.212;2023-05-07T04:10:09;21.96;58.36
70170;DHT22;57543;45.442;9.212;2023-05-07T04:13:15;21.93;58.23
70170;DHT22;57543;45.442;9.212;2023-05-07T04:16:19;21.70;58.74
70170;DHT22;57543;45.442;9.212;2023-05-07T04:19:24;21.82;58.37
70170;DHT22;57543;45.442;9.212;2023-05-07T04:22:29;21.74;58.28
70170;DHT22;57543;45.442;9.212;2023-05-07T04:25:33;21.70;58.53
70170;DHT22;57543;45.442;9.212;2023-05-07T04:28:47;21.74;58.63
70170;DHT22;57543;45.442;9.212;2023-05-07T04:31:52;21.70;58.79
70170;DHT22;57543;45.442;9.212;2023-05-07T04:34:56;21.50;59.64
70170;DHT22;57543;45.442;9.212;2023-05-07T04:38:00;21.42;59.90
70170;DHT22;57543;45.442;9.212;2023-05-07T04:41:06;21.52;59.64
70170;DHT22;57543;45.442;9.212;2023-05-07T04:44:16;21.59;59.43
70170;DHT22;57543;45.442;9.212;2023-05-07T04:47:21;21.46;59.95
70170;DHT22;57543;45.442;9.212;2023-05-07T04:50:25;21.55;59.67
70170;DHT22;57543;45.442;9.212;2023-05-07T04:53:33;21.46;59.79
70170;DHT22;57543;45.442;9.212;2023-05-07T04:56:36;21.55;59.59
70170;DHT22;57543;45.442;9.212;2023-05-07T04:59:40;21.52;59.57
70170;DHT22;57543;45.442;9.212;2023-05-07T05:02:44;21.55;59.46
70170;DHT22;57543;45.442;9.212;2023-05-07T05:05:51;21.38;59.84
70170;DHT22;57543;45.442;9.212;2023-05-07T05:08:57;21.48;59.81
70170;DHT22;57543;45.442;9.212;2023-05-07T05:12:01;21.41;59.99
70170;DHT22;57543;45.442;9.212;2023-05-07T05:15:07;21.48;59.64
70170;DHT22;57543;45.442;9.212;2023-05-07T05:18:11;21.41;59.75
70170;DHT22;57543;45.442;9.212;2023-05-07T05:21:16;21.37;59.73
70170;DHT22;57543;45.442;9.212;2023-05-07T05:24:22;21.41;59.53
70170;DHT22;57543;45.442;9.212;2023-05-07T05:27:26;21.29;59.71
70170;DHT22;57543;45.442;9.212;2023-05-07T05:30:30;21.34;59.69
70170;DHT22;57543;45.442;9.212;2023-05-07T05:33:34;21.38;59.75
70170;DHT22;57543;45.442;9.212;2023-05-07T05:36:40;21.56;59.33
70170;DHT22;57543;45.442;9.212;2023-05-07T05:39:44;21.59;59.06
70170;DHT22;57543;45.442;9.212;2023-05-07T05:42:48;21.57;59.14
70170;DHT22;57543;45.442;9.212;2023-05-07T05:45:53;21.39;60.06
70170;DHT22;57543;45.442;9.212;2023-05-07T05:48:56;21.56;59.69
70170;DHT22;57543;45.442;9.212;2023-05-07T05:52:00;21.73;59.43
70170;DHT22;57543;45.442;9.212;2023-05-07T05:55:05;21.72;59.18
70170;DHT22;57543;45.442;9.212;2023-05-07T05:58:09;21.60;59.86
70170;DHT22;57543;45.442;9.212;2023-05-07T06:01:18;21.63;60.38
70170;DHT22;57543;45.442;9.212;2023-05-07T06:04:22;21.76;60.38
70170;DHT22;57543;45.442;9.212;2023-05-07T06:07:26;21.82;60.00
70170;DHT22;57543;45.442;9.212;2023-05-07T06:10:30;21.93;60.11
70170;DHT22;57543;45.442;9.212;2023-05-07T06:13:34;21.98;60.37
70170;DHT22;57543;45.442;9.212;2023-05-07T06:16:38;21.82;60.23
70170;DHT22;57543;45.442;9.212;2023-05-07T06:19:43;21.65;60.88
70170;DHT22;57543;45.442;9.212;2023-05-07T06:22:49;21.46;60.91
70170;DHT22;57543;45.442;9.212;2023-05-07T06:25:53;21.66;60.21
70170;DHT22;57543;45.442;9.212;2023-05-07T06:29:00;21.87;59.35
70170;DHT22;57543;45.442;9.212;2023-05-07T06:32:11;21.87;59.21
70170;DHT22;57543;45.442;9.212;2023-05-07T06:35:16;21.93;59.11
70170;DHT22;57543;45.442;9.212;2023-05-07T06:38:20;21.11;62.44
70170;DHT22;57543;45.442;9.212;2023-05-07T06:41:23;21.35;61.46
70170;DHT22;57543;45.442;9.212;2023-05-07T06:44:27;21.04;62.81
70170;DHT22;57543;45.442;9.212;2023-05-07T06:47:44;21.27;61.42
70170;DHT22;57543;45.442;9.212;2023-05-07T06:50:48;21.52;60.94
70170;DHT22;57543;45.442;9.212;2023-05-07T06:53:52;21.76;60.61
70170;DHT22;57543;45.442;9.212;2023-05-07T06:56:56;21.79;61.78
70170;DHT22;57543;45.442;9.212;2023-05-07T07:00:03;21.93;60.35
70170;DHT22;57543;45.442;9.212;2023-05-07T07:03:08;21.94;60.20
70170;DHT22;57543;45.442;9.212;2023-05-07T07:06:13;21.84;60.16
70170;DHT22;57543;45.442;9.212;2023-05-07T07:09:16;22.15;59.51
70170;DHT22;57543;45.442;9.212;2023-05-07T07:12:20;22.18;58.45
70170;DHT22;57543;45.442;9.212;2023-05-07T07:15:24;22.39;57.81
70170;DHT22;57543;45.442;9.212;2023-05-07T07:18:29;22.62;58.44
70170;DHT22;57543;45.442;9.212;2023-05-07T07:21:32;22.80;56.86
70170;DHT22;57543;45.442;9.212;2023-05-07T07:24:36;22.87;55.99
70170;DHT22;57543;45.442;9.212;2023-05-07T07:27:42;22.89;55.72
70170;DHT22;57543;45.442;9.212;2023-05-07T07:30:46;22.73;55.80
70170;DHT22;57543;45.442;9.212;2023-05-07T07:33:50;22.73;55.88
70170;DHT22;57543;45.442;9.212;2023-05-07T07:36:54;22.80;55.47
70170;DHT22;57543;45.442;9.212;2023-05-07T07:39:58;22.62;55.91
70170;DHT22;57543;45.442;9.212;2023-05-07T07:43:02;22.64;55.70
70170;DHT22;57543;45.442;9.212;2023-05-07T07:46:06;22.74;56.93
70170;DHT22;57543;45.442;9.212;2023-05-07T07:49:10;22.87;56.73
70170;DHT22;57543;45.442;9.212;2023-05-07T07:52:14;22.97;56.08
70170;DHT22;57543;45.442;9.212;2023-05-07T07:55:20;23.15;55.70
70170;DHT22;57543;45.442;9.212;2023-05-07T07:58:27;23.35;54.81
70170;DHT22;57543;45.442;9.212;2023-05-07T08:01:31;23.03;55.12
70170;DHT22;57543;45.442;9.212;2023-05-07T08:04:36;22.83;55.78
70170;DHT22;57543;45.442;9.212;2023-05-07T08:07:42;23.03;56.70
70170;DHT22;57543;45.442;9.212;2023-05-07T08:10:47;23.45;55.73
70170;DHT22;57543;45.442;9.212;2023-05-07T08:13:58;23.58;56.08
70170;DHT22;57543;45.442;9.212;2023-05-07T08:17:02;23.70;55.66
70170;DHT22;57543;45.442;9.212;2023-05-07T08:20:07;23.73;55.56
70170;DHT22;57543;45.442;9.212;2023-05-07T08:23:11;23.62;56.31
70170;DHT22;57543;45.442;9.212;2023-05-07T08:26:16;23.94;55.28
70170;DHT22;57543;45.442;9.212;2023-05-07T08:29:21;23.92;53.83
70170;DHT22;57543;45.442;9.212;2023-05-07T08:32:29;23.97;52.25
70170;DHT22;57543;45.442;9.212;2023-05-07T08:35:33;24.18;52.37
70170;DHT22;57543;45.442;9.212;2023-05-07T08:38:37;24.21;52.02
70170;DHT22;57543;45.442;9.212;2023-05-07T08:41:45;24.38;51.61
70170;DHT22;57543;45.442;9.212;2023-05-07T08:44:53;24.31;51.10
70170;DHT22;57543;45.442;9.212;2023-05-07T08:48:02;24.33;49.52
70170;DHT22;57543;45.442;9.212;2023-05-07T08:51:17;24.48;49.34
70170;DHT22;57543;45.442;9.212;2023-05-07T08:54:22;24.43;49.66
70170;DHT22;57543;45.442;9.212;2023-05-07T08:57:25;24.21;49.74
70170;DHT22;57543;45.442;9.212;2023-05-07T09:00:29;23.98;50.44
70170;DHT22;57543;45.442;9.212;2023-05-07T09:03:34;24.22;50.86
70170;DHT22;57543;45.442;9.212;2023-05-07T09:06:38;23.73;54.21
70170;DHT22;57543;45.442;9.212;2023-05-07T09:09:50;23.81;53.70
70170;DHT22;57543;45.442;9.212;2023-05-07T09:12:55;24.10;54.25
70170;DHT22;57543;45.442;9.212;2023-05-07T09:16:09;24.38;53.82
70170;DHT22;57543;45.442;9.212;2023-05-07T09:19:14;24.67;53.26
70170;DHT22;57543;45.442;9.212;2023-05-07T09:22:22;24.93;52.29
70170;DHT22;57543;45.442;9.212;2023-05-07T09:25:39;24.97;52.78
70170;DHT22;57543;45.442;9.212;2023-05-07T09:28:52;25.08;52.59
70170;DHT22;57543;45.442;9.212;2023-05-07T09:31:56;25.22;52.37
70170;DHT22;57543;45.442;9.212;2023-05-07T09:35:01;25.20;52.57
70170;DHT22;57543;45.442;9.212;2023-05-07T09:38:06;25.37;53.62
70170;DHT22;57543;45.442;9.212;2023-05-07T09:41:13;25.63;52.77
70170;DHT22;57543;45.442;9.212;2023-05-07T09:44:38;25.75;53.35
70170;DHT22;57543;45.442;9.212;2023-05-07T09:47:47;25.22;52.07
70170;DHT22;57543;45.442;9.212;2023-05-07T09:50:55;25.00;53.28
70170;DHT22;57543;45.442;9.212;2023-05-07T09:54:04;24.93;54.29
70170;DHT22;57543;45.442;9.212;2023-05-07T09:57:11;25.29;54.02
70170;DHT22;57543;45.442;9.212;2023-05-07T10:00:19;25.52;53.79
70170;DHT22;57543;45.442;9.212;2023-05-07T10:03:27;25.80;51.93
70170;DHT22;57543;45.442;9.212;2023-05-07T10:06:40;25.92;51.37
70170;DHT22;57543;45.442;9.212;2023-05-07T10:09:45;25.65;55.75
70170;DHT22;57543;45.442;9.212;2023-05-07T10:12:59;26.03;53.34
70170;DHT22;57543;45.442;9.212;2023-05-07T10:16:10;26.18;52.79
70170;DHT22;57543;45.442;9.212;2023-05-07T10:19:21;26.10;53.06
70170;DHT22;57543;45.442;9.212;2023-05-07T10:22:34;25.98;53.03
70170;DHT22;57543;45.442;9.212;2023-05-07T10:25:40;25.89;53.92
70170;DHT22;57543;45.442;9.212;2023-05-07T10:28:57;26.16;53.19
70170;DHT22;57543;45.442;9.212;2023-05-07T10:32:07;25.83;53.82
70170;DHT22;57543;45.442;9.212;2023-05-07T10:35:24;26.18;52.31
70170;DHT22;57543;45.442;9.212;2023-05-07T10:38:29;26.22;51.95
70170;DHT22;57543;45.442;9.212;2023-05-07T10:41:34;26.41;52.09
70170;DHT22;57543;45.442;9.212;2023-05-07T10:44:38;26.66;50.75
70170;DHT22;57543;45.442;9.212;2023-05-07T10:48:11;26.78;50.56
70170;DHT22;57543;45.442;9.212;2023-05-07T10:51:21;26.91;48.68
70170;DHT22;57543;45.442;9.212;2023-05-07T10:54:27;27.08;49.27
70170;DHT22;57543;45.442;9.212;2023-05-07T10:57:42;27.07;51.07
70170;DHT22;57543;45.442;9.212;2023-05-07T11:00:58;27.11;50.58
70170;DHT22;57543;45.442;9.212;2023-05-07T11:04:16;27.34;49.19
70170;DHT22;57543;45.442;9.212;2023-05-07T11:07:30;27.49;48.35
70170;DHT22;57543;45.442;9.212;2023-05-07T11:14:04;27.61;49.00
70170;DHT22;57543;45.442;9.212;2023-05-07T11:17:22;27.65;45.88
70170;DHT22;57543;45.442;9.212;2023-05-07T11:21:11;27.44;47.03
70170;DHT22;57543;45.442;9.212;2023-05-07T11:24:21;27.37;47.87
70170;DHT22;57543;45.442;9.212;2023-05-07T11:27:38;27.53;49.03
70170;DHT22;57543;45.442;9.212;2023-05-07T11:30:45;27.63;48.81
70170;DHT22;57543;45.442;9.212;2023-05-07T11:33:53;27.66;49.82
70170;DHT22;57543;45.442;9.212;2023-05-07T11:36:58;27.78;48.61
70170;DHT22;57543;45.442;9.212;2023-05-07T11:40:15;27.74;47.56
70170;DHT22;57543;45.442;9.212;2023-05-07T11:43:19;27.56;45.89
70170;DHT22;57543;45.442;9.212;2023-05-07T11:46:22;27.69;46.78
70170;DHT22;57543;45.442;9.212;2023-05-07T11:49:27;27.86;47.12
70170;DHT22;57543;45.442;9.212;2023-05-07T11:52:31;27.74;46.49
70170;DHT22;57543;45.442;9.212;2023-05-07T11:55:35;28.01;47.45
70170;DHT22;57543;45.442;9.212;2023-05-07T11:58:40;28.13;46.08
70170;DHT22;57543;45.442;9.212;2023-05-07T12:01:47;28.25;45.67
70170;DHT22;57543;45.442;9.212;2023-05-07T12:04:52;28.04;44.85
70170;DHT22;57543;45.442;9.212;2023-05-07T12:07:57;28.37;45.44
70170;DHT22;57543;45.442;9.212;2023-05-07T12:11:00;28.59;43.97
70170;DHT22;57543;45.442;9.212;2023-05-07T12:14:04;28.77;43.55
70170;DHT22;57543;45.442;9.212;2023-05-07T12:17:08;28.83;41.80
70170;DHT22;57543;45.442;9.212;2023-05-07T12:20:12;28.77;42.59
70170;DHT22;57543;45.442;9.212;2023-05-07T12:23:16;28.38;44.24
70170;DHT22;57543;45.442;9.212;2023-05-07T12:26:20;28.42;42.95
70170;DHT22;57543;45.442;9.212;2023-05-07T12:29:27;28.14;45.20
70170;DHT22;57543;45.442;9.212;2023-05-07T12:32:31;28.29;44.24
70170;DHT22;57543;45.442;9.212;2023-05-07T12:35:41;28.07;44.34
70170;DHT22;57543;45.442;9.212;2023-05-07T12:38:50;28.15;43.76
70170;DHT22;57543;45.442;9.212;2023-05-07T12:41:58;28.11;42.88
70170;DHT22;57543;45.442;9.212;2023-05-07T12:45:12;27.86;43.57
70170;DHT22;57543;45.442;9.212;2023-05-07T12:48:17;27.93;42.59
70170;DHT22;57543;45.442;9.212;2023-05-07T12:51:22;28.08;42.44
70170;DHT22;57543;45.442;9.212;2023-05-07T12:57:38;28.47;42.12
70170;DHT22;57543;45.442;9.212;2023-05-07T13:00:42;28.53;41.83
70170;DHT22;57543;45.442;9.212;2023-05-07T13:03:48;28.66;41.43
70170;DHT22;57543;45.442;9.212;2023-05-07T13:06:54;28.68;41.43
70170;DHT22;57543;45.442;9.212;2023-05-07T13:09:58;28.51;40.15
70170;DHT22;57543;45.442;9.212;2023-05-07T13:13:02;28.40;40.54
70170;DHT22;57543;45.442;9.212;2023-05-07T13:16:10;28.44;41.56
70170;DHT22;57543;45.442;9.212;2023-05-07T13:19:14;28.37;41.66
70170;DHT22;57543;45.442;9.212;2023-05-07T13:22:21;28.52;40.95
70170;DHT22;57543;45.442;9.212;2023-05-07T13:25:24;28.49;41.20
70170;DHT22;57543;45.442;9.212;2023-05-07T13:28:28;28.29;40.41
70170;DHT22;57543;45.442;9.212;2023-05-07T13:31:31;27.93;40.73
70170;DHT22;57543;45.442;9.212;2023-05-07T13:34:37;28.06;41.07
70170;DHT22;57543;45.442;9.212;2023-05-07T13:37:41;28.22;39.87
70170;DHT22;57543;45.442;9.212;2023-05-07T13:40:44;28.45;39.59
70170;DHT22;57543;45.442;9.212;2023-05-07T13:43:48;28.21;39.85
70170;DHT22;57543;45.442;9.212;2023-05-07T13:46:51;28.07;39.48
70170;DHT22;57543;45.442;9.212;2023-05-07T13:49:55;28.35;39.44
70170;DHT22;57543;45.442;9.212;2023-05-07T13:52:58;28.41;39.32
70170;DHT22;57543;45.442;9.212;2023-05-07T13:56:02;28.17;40.17
70170;DHT22;57543;45.442;9.212;2023-05-07T13:59:10;28.55;41.07
70170;DHT22;57543;45.442;9.212;2023-05-07T14:02:16;28.69;40.96
70170;DHT22;57543;45.442;9.212;2023-05-07T14:05:20;28.77;39.83
70170;DHT22;57543;45.442;9.212;2023-05-07T14:08:24;29.06;39.49
70170;DHT22;57543;45.442;9.212;2023-05-07T14:11:28;29.21;38.78
70170;DHT22;57543;45.442;9.212;2023-05-07T14:14:31;29.13;38.48
70170;DHT22;57543;45.442;9.212;2023-05-07T14:17:35;29.28;38.06
70170;DHT22;57543;45.442;9.212;2023-05-07T14:20:39;29.13;38.33
70170;DHT22;57543;45.442;9.212;2023-05-07T14:23:42;28.90;38.75
70170;DHT22;57543;45.442;9.212;2023-05-07T14:26:45;28.92;38.13
70170;DHT22;57543;45.442;9.212;2023-05-07T14:29:49;28.97;38.07
70170;DHT22;57543;45.442;9.212;2023-05-07T14:32:54;28.86;38.48
70170;DHT22;57543;45.442;9.212;2023-05-07T14:35:58;28.60;39.30
70170;DHT22;57543;45.442;9.212;2023-05-07T14:39:02;28.83;39.82
70170;DHT22;57543;45.442;9.212;2023-05-07T14:42:07;28.62;39.15
70170;DHT22;57543;45.442;9.212;2023-05-07T14:45:11;28.68;39.52
70170;DHT22;57543;45.442;9.212;2023-05-07T14:48:14;28.31;38.73
70170;DHT22;57543;45.442;9.212;2023-05-07T14:51:18;28.29;39.21
70170;DHT22;57543;45.442;9.212;2023-05-07T14:54:21;28.35;39.42
70170;DHT22;57543;45.442;9.212;2023-05-07T14:57:25;28.24;39.25
70170;DHT22;57543;45.442;9.212;2023-05-07T15:00:29;28.28;39.11
70170;DHT22;57543;45.442;9.212;2023-05-07T15:03:34;28.21;39.32
70170;DHT22;57543;45.442;9.212;2023-05-07T15:06:37;28.21;39.26
70170;DHT22;57543;45.442;9.212;2023-05-07T15:09:42;27.90;40.13
70170;DHT22;57543;45.442;9.212;2023-05-07T15:12:46;27.55;41.08
70170;DHT22;57543;45.442;9.212;2023-05-07T15:15:50;27.74;40.96
70170;DHT22;57543;45.442;9.212;2023-05-07T15:18:54;27.86;40.71
70170;DHT22;57543;45.442;9.212;2023-05-07T15:21:58;27.83;41.33
70170;DHT22;57543;45.442;9.212;2023-05-07T15:25:05;27.70;41.32
70170;DHT22;57543;45.442;9.212;2023-05-07T15:28:10;27.94;41.00
70170;DHT22;57543;45.442;9.212;2023-05-07T15:31:15;27.97;40.77
70170;DHT22;57543;45.442;9.212;2023-05-07T15:34:18;28.06;40.98
70170;DHT22;57543;45.442;9.212;2023-05-07T15:37:22;27.98;41.24
70170;DHT22;57543;45.442;9.212;2023-05-07T15:40:26;27.94;41.12
70170;DHT22;57543;45.442;9.212;2023-05-07T15:43:30;27.78;40.83
70170;DHT22;57543;45.442;9.212;2023-05-07T15:46:34;27.76;41.25
70170;DHT22;57543;45.442;9.212;2023-05-07T15:49:37;27.73;41.81
70170;DHT22;57543;45.442;9.212;2023-05-07T15:52:41;27.66;41.74
70170;DHT22;57543;45.442;9.212;2023-05-07T15:55:45;27.42;42.84
70170;DHT22;57543;45.442;9.212;2023-05-07T15:58:50;27.45;42.11
70170;DHT22;57543;45.442;9.212;2023-05-07T16:01:55;27.61;41.72
70170;DHT22;57543;45.442;9.212;2023-05-07T16:04:59;27.51;42.19
70170;DHT22;57543;45.442;9.212;2023-05-07T16:08:03;27.51;43.24
70170;DHT22;57543;45.442;9.212;2023-05-07T16:11:08;27.53;43.87
70170;DHT22;57543;45.442;9.212;2023-05-07T16:14:11;27.53;42.47
70170;DHT22;57543;45.442;9.212;2023-05-07T16:17:16;27.45;42.51
70170;DHT22;57543;45.442;9.212;2023-05-07T16:20:20;27.33;42.66
70170;DHT22;57543;45.442;9.212;2023-05-07T16:23:24;27.35;42.94
70170;DHT22;57543;45.442;9.212;2023-05-07T16:26:28;27.46;42.75
70170;DHT22;57543;45.442;9.212;2023-05-07T16:29:32;27.52;42.89
70170;DHT22;57543;45.442;9.212;2023-05-07T16:32:35;27.11;43.38
70170;DHT22;57543;45.442;9.212;2023-05-07T16:35:40;27.21;43.44
70170;DHT22;57543;45.442;9.212;2023-05-07T16:38:43;27.14;43.00
70170;DHT22;57543;45.442;9.212;2023-05-07T16:41:47;27.15;42.99
70170;DHT22;57543;45.442;9.212;2023-05-07T16:44:56;26.96;43.52
70170;DHT22;57543;45.442;9.212;2023-05-07T16:47:59;27.00;43.69
70170;DHT22;57543;45.442;9.212;2023-05-07T16:51:03;27.00;43.21
70170;DHT22;57543;45.442;9.212;2023-05-07T16:54:07;26.90;42.98
70170;DHT22;57543;45.442;9.212;2023-05-07T16:57:11;26.93;42.95
70170;DHT22;57543;45.442;9.212;2023-05-07T17:00:15;26.93;42.86
70170;DHT22;57543;45.442;9.212;2023-05-07T17:03:19;26.91;43.02
70170;DHT22;57543;45.442;9.212;2023-05-07T17:06:23;26.87;43.05
70170;DHT22;57543;45.442;9.212;2023-05-07T17:09:27;26.73;42.75
70170;DHT22;57543;45.442;9.212;2023-05-07T17:12:31;26.63;42.85
70170;DHT22;57543;45.442;9.212;2023-05-07T17:15:34;26.57;43.31
70170;DHT22;57543;45.442;9.212;2023-05-07T17:18:39;26.62;43.35
70170;DHT22;57543;45.442;9.212;2023-05-07T17:21:43;26.62;43.58
70170;DHT22;57543;45.442;9.212;2023-05-07T17:24:47;26.60;43.65
70170;DHT22;57543;45.442;9.212;2023-05-07T17:27:51;26.56;43.91
70170;DHT22;57543;45.442;9.212;2023-05-07T17:30:54;26.52;44.12
70170;DHT22;57543;45.442;9.212;2023-05-07T17:33:58;26.51;44.23
70170;DHT22;57543;45.442;9.212;2023-05-07T17:37:02;26.52;44.19
70170;DHT22;57543;45.442;9.212;2023-05-07T17:40:06;26.55;43.90
70170;DHT22;57543;45.442;9.212;2023-05-07T17:43:09;26.41;44.09
70170;DHT22;57543;45.442;9.212;2023-05-07T17:46:13;26.29;44.35
70170;DHT22;57543;45.442;9.212;2023-05-07T17:49:18;26.31;44.35
70170;DHT22;57543;45.442;9.212;2023-05-07T17:52:22;26.11;44.74
70170;DHT22;57543;45.442;9.212;2023-05-07T17:55:26;26.13;44.74
70170;DHT22;57543;45.442;9.212;2023-05-07T17:58:31;26.10;44.99
70170;DHT22;57543;45.442;9.212;2023-05-07T18:01:35;26.10;44.89
70170;DHT22;57543;45.442;9.212;2023-05-07T18:04:38;26.04;45.08
70170;DHT22;57543;45.442;9.212;2023-05-07T18:07:42;26.11;45.05
70170;DHT22;57543;45.442;9.212;2023-05-07T18:10:46;26.10;44.84
70170;DHT22;57543;45.442;9.212;2023-05-07T18:13:50;26.03;44.93
70170;DHT22;57543;45.442;9.212;2023-05-07T18:16:54;25.97;44.96
70170;DHT22;57543;45.442;9.212;2023-05-07T18:19:58;25.96;45.09
70170;DHT22;57543;45.442;9.212;2023-05-07T18:23:01;25.90;45.25
70170;DHT22;57543;45.442;9.212;2023-05-07T18:26:06;25.83;45.40
70170;DHT22;57543;45.442;9.212;2023-05-07T18:29:10;25.89;44.50
70170;DHT22;57543;45.442;9.212;2023-05-07T18:32:13;25.84;41.26
70170;DHT22;57543;45.442;9.212;2023-05-07T18:35:17;25.72;40.41
70170;DHT22;57543;45.442;9.212;2023-05-07T18:38:21;25.67;40.17
70170;DHT22;57543;45.442;9.212;2023-05-07T18:41:25;25.61;38.91
70170;DHT22;57543;45.442;9.212;2023-05-07T18:44:28;25.58;38.05
70170;DHT22;57543;45.442;9.212;2023-05-07T18:47:33;25.43;37.55
70170;DHT22;57543;45.442;9.212;2023-05-07T18:50:41;25.32;36.70
70170;DHT22;57543;45.442;9.212;2023-05-07T18:53:44;25.31;36.74
70170;DHT22;57543;45.442;9.212;2023-05-07T18:56:48;25.18;36.78
70170;DHT22;57543;45.442;9.212;2023-05-07T18:59:52;25.11;37.08
70170;DHT22;57543;45.442;9.212;2023-05-07T19:02:57;25.00;36.62
70170;DHT22;57543;45.442;9.212;2023-05-07T19:06:01;24.95;36.04
70170;DHT22;57543;45.442;9.212;2023-05-07T19:09:05;24.83;35.81
70170;DHT22;57543;45.442;9.212;2023-05-07T19:12:09;24.90;35.97
70170;DHT22;57543;45.442;9.212;2023-05-07T19:15:13;24.69;36.03
70170;DHT22;57543;45.442;9.212;2023-05-07T19:18:16;24.59;36.16
70170;DHT22;57543;45.442;9.212;2023-05-07T19:21:20;24.60;36.09
70170;DHT22;57543;45.442;9.212;2023-05-07T19:24:24;24.65;35.98
70170;DHT22;57543;45.442;9.212;2023-05-07T19:27:27;24.66;36.21
70170;DHT22;57543;45.442;9.212;2023-05-07T19:30:30;24.51;36.29
70170;DHT22;57543;45.442;9.212;2023-05-07T19:33:34;24.42;37.04
70170;DHT22;57543;45.442;9.212;2023-05-07T19:36:38;24.45;36.77